sensor_id;sensor_type;location;lat;lon;timestamp;P1;durP1;ratioP1;P2;durP2;ratioP2
18316;SDS011;9284;52.298;21.164;2023-05-10T00:01:27;12.33;;;5.80;;
18316;SDS011;9284;52.298;21.164;2023-05-10T00:04:03;10.77;;;5.73;;
18316;SDS011;9284;52.298;21.164;2023-05-10T00:06:32;12.37;;;6.17;;
18316;SDS011;9284;52.298;21.164;2023-05-10T00:09:12;10.27;;;5.73;;
18316;SDS011;9284;52.298;21.164;2023-05-10T00:11:41;13.43;;;6.13;;
18316;SDS011;9284;52.298;21.164;2023-05-10T00:14:09;10.23;;;5.33;;
18316;SDS011;9284;52.298;21.164;2023-05-10T00:16:38;12.67;;;5.53;;
18316;SDS011;9284;52.298;21.164;2023-05-10T00:19:09;10.47;;;5.70;;
18316;SDS011;9284;52.298;21.164;2023-05-10T00:21:45;10.37;;;5.63;;
18316;SDS011;9284;52.298;21.164;2023-05-10T00:24:35;10.10;;;6.00;;
18316;SDS011;9284;52.298;21.164;2023-05-10T00:27:09;10.03;;;5.00;;
18316;SDS011;9284;52.298;21.164;2023-05-10T00:29:41;10.53;;;5.77;;
18316;SDS011;9284;52.298;21.164;2023-05-10T00:32:10;8.73;;;5.00;;
18316;SDS011;9284;52.298;21.164;2023-05-10T00:34:42;8.83;;;5.70;;
18316;SDS011;9284;52.298;21.164;2023-05-10T00:37:13;10.10;;;5.60;;
18316;SDS011;9284;52.298;21.164;2023-05-10T00:39:51;9.43;;;4.97;;
18316;SDS011;9284;52.298;21.164;2023-05-10T00:42:22;10.80;;;5.43;;
18316;SDS011;9284;52.298;21.164;2023-05-10T00:44:57;9.47;;;4.93;;
18316;SDS011;9284;52.298;21.164;2023-05-10T00:47:29;8.57;;;5.07;;
18316;SDS011;9284;52.298;21.164;2023-05-10T00:50:01;11.07;;;5.17;;
18316;SDS011;9284;52.298;21.164;2023-05-10T00:52:40;12.83;;;5.53;;
18316;SDS011;9284;52.298;21.164;2023-05-10T00:55:13;11.97;;;4.83;;
18316;SDS011;9284;52.298;21.164;2023-05-10T00:57:43;11.70;;;5.17;;
18316;SDS011;9284;52.298;21.164;2023-05-10T01:00:17;9.87;;;5.20;;
18316;SDS011;9284;52.298;21.164;2023-05-10T01:02:51;10.47;;;4.73;;
18316;SDS011;9284;52.298;21.164;2023-05-10T01:05:21;8.23;;;5.03;;
18316;SDS011;9284;52.298;21.164;2023-05-10T01:07:52;10.33;;;4.77;;
18316;SDS011;9284;52.298;21.164;2023-05-10T01:10:26;9.47;;;4.80;;
18316;SDS011;9284;52.298;21.164;2023-05-10T01:13:08;8.90;;;4.90;;
18316;SDS011;9284;52.298;21.164;2023-05-10T01:15:43;8.30;;;4.63;;
18316;SDS011;9284;52.298;21.164;2023-05-10T01:18:14;9.83;;;4.53;;
18316;SDS011;9284;52.298;21.164;2023-05-10T01:20:54;8.70;;;4.37;;
18316;SDS011;9284;52.298;21.164;2023-05-10T01:26:58;8.57;;;4.63;;
18316;SDS011;9284;52.298;21.164;2023-05-10T01:33:09;8.23;;;4.50;;
18316;SDS011;9284;52.298;21.164;2023-05-10T01:35:53;8.53;;;4.70;;
18316;SDS011;9284;52.298;21.164;2023-05-10T01:38:36;11.23;;;4.50;;
18316;SDS011;9284;52.298;21.164;2023-05-10T01:41:15;8.23;;;5.17;;
18316;SDS011;9284;52.298;21.164;2023-05-10T01:43:52;7.27;;;4.47;;
18316;SDS011;9284;52.298;21.164;2023-05-10T01:46:45;10.60;;;4.73;;
18316;SDS011;9284;52.298;21.164;2023-05-10T01:49:21;7.77;;;4.13;;
18316;SDS011;9284;52.298;21.164;2023-05-10T01:51:57;8.43;;;4.17;;
18316;SDS011;9284;52.298;21.164;2023-05-10T01:54:29;9.00;;;4.97;;
18316;SDS011;9284;52.298;21.164;2023-05-10T01:57:03;8.50;;;4.33;;
18316;SDS011;9284;52.298;21.164;2023-05-10T01:59:40;7.67;;;4.40;;
18316;SDS011;9284;52.298;21.164;2023-05-10T02:02:16;7.00;;;4.20;;
18316;SDS011;9284;52.298;21.164;2023-05-10T02:04:55;6.60;;;3.87;;
18316;SDS011;9284;52.298;21.164;2023-05-10T02:07:40;13.47;;;5.03;;
18316;SDS011;9284;52.298;21.164;2023-05-10T02:10:19;6.73;;;4.10;;
18316;SDS011;9284;52.298;21.164;2023-05-10T02:12:48;8.30;;;4.67;;
18316;SDS011;9284;52.298;21.164;2023-05-10T02:15:23;10.00;;;4.27;;
18316;SDS011;9284;52.298;21.164;2023-05-10T02:17:55;7.03;;;3.77;;
18316;SDS011;9284;52.298;21.164;2023-05-10T02:20:36;8.13;;;3.90;;
18316;SDS011;9284;52.298;21.164;2023-05-10T02:23:14;5.87;;;4.00;;
18316;SDS011;9284;52.298;21.164;2023-05-10T02:25:45;7.83;;;4.00;;
18316;SDS011;9284;52.298;21.164;2023-05-10T02:28:17;7.30;;;4.00;;
18316;SDS011;9284;52.298;21.164;2023-05-10T02:30:49;9.03;;;4.30;;
18316;SDS011;9284;52.298;21.164;2023-05-10T02:33:32;6.53;;;3.67;;
18316;SDS011;9284;52.298;21.164;2023-05-10T02:36:09;7.53;;;4.03;;
18316;SDS011;9284;52.298;21.164;2023-05-10T02:38:40;10.93;;;4.10;;
18316;SDS011;9284;52.298;21.164;2023-05-10T02:41:15;6.73;;;3.83;;
18316;SDS011;9284;52.298;21.164;2023-05-10T02:43:49;7.03;;;4.00;;
18316;SDS011;9284;52.298;21.164;2023-05-10T02:46:22;9.63;;;3.87;;
18316;SDS011;9284;52.298;21.164;2023-05-10T02:48:57;12.77;;;4.10;;
18316;SDS011;9284;52.298;21.164;2023-05-10T02:51:34;7.53;;;3.90;;
18316;SDS011;9284;52.298;21.164;2023-05-10T02:54:09;8.73;;;4.30;;
18316;SDS011;9284;52.298;21.164;2023-05-10T02:56:56;6.03;;;3.80;;
18316;SDS011;9284;52.298;21.164;2023-05-10T02:59:33;8.10;;;4.30;;
18316;SDS011;9284;52.298;21.164;2023-05-10T03:02:07;8.40;;;4.20;;
18316;SDS011;9284;52.298;21.164;2023-05-10T03:04:40;7.93;;;3.80;;
18316;SDS011;9284;52.298;21.164;2023-05-10T03:07:12;8.57;;;4.20;;
18316;SDS011;9284;52.298;21.164;2023-05-10T03:09:42;7.90;;;4.00;;
18316;SDS011;9284;52.298;21.164;2023-05-10T03:12:14;6.37;;;3.60;;
18316;SDS011;9284;52.298;21.164;2023-05-10T03:14:53;6.57;;;4.23;;
18316;SDS011;9284;52.298;21.164;2023-05-10T03:17:30;8.17;;;4.57;;
18316;SDS011;9284;52.298;21.164;2023-05-10T03:20:06;7.63;;;4.00;;
18316;SDS011;9284;52.298;21.164;2023-05-10T03:22:49;8.13;;;4.27;;
18316;SDS011;9284;52.298;21.164;2023-05-10T03:25:26;8.73;;;3.73;;
18316;SDS011;9284;52.298;21.164;2023-05-10T03:28:00;8.20;;;4.67;;
18316;SDS011;9284;52.298;21.164;2023-05-10T03:30:33;8.27;;;3.70;;
18316;SDS011;9284;52.298;21.164;2023-05-10T03:33:06;6.87;;;4.10;;
18316;SDS011;9284;52.298;21.164;2023-05-10T03:35:40;11.77;;;3.70;;
18316;SDS011;9284;52.298;21.164;2023-05-10T03:38:15;6.80;;;3.63;;
18316;SDS011;9284;52.298;21.164;2023-05-10T03:40:46;10.93;;;4.00;;
18316;SDS011;9284;52.298;21.164;2023-05-10T03:43:18;6.30;;;3.70;;
18316;SDS011;9284;52.298;21.164;2023-05-10T03:45:57;5.53;;;3.53;;
18316;SDS011;9284;52.298;21.164;2023-05-10T03:48:26;9.57;;;3.90;;
18316;SDS011;9284;52.298;21.164;2023-05-10T03:51:01;7.00;;;3.70;;
18316;SDS011;9284;52.298;21.164;2023-05-10T03:53:40;6.83;;;3.80;;
18316;SDS011;9284;52.298;21.164;2023-05-10T03:56:11;7.43;;;3.77;;
18316;SDS011;9284;52.298;21.164;2023-05-10T03:58:51;8.07;;;3.58;;
18316;SDS011;9284;52.298;21.164;2023-05-10T04:01:20;8.57;;;4.03;;
18316;SDS011;9284;52.298;21.164;2023-05-10T04:03:48;6.77;;;3.40;;
18316;SDS011;9284;52.298;21.164;2023-05-10T04:06:21;5.70;;;3.57;;
18316;SDS011;9284;52.298;21.164;2023-05-10T04:08:53;9.98;;;3.72;;
18316;SDS011;9284;52.298;21.164;2023-05-10T04:11:25;6.80;;;3.50;;
18316;SDS011;9284;52.298;21.164;2023-05-10T04:13:57;7.70;;;3.73;;
18316;SDS011;9284;52.298;21.164;2023-05-10T04:16:28;6.85;;;3.35;;
18316;SDS011;9284;52.298;21.164;2023-05-10T04:18:59;7.05;;;3.50;;
18316;SDS011;9284;52.298;21.164;2023-05-10T04:21:29;7.07;;;3.90;;
18316;SDS011;9284;52.298;21.164;2023-05-10T04:24:01;9.98;;;3.53;;
18316;SDS011;9284;52.298;21.164;2023-05-10T04:26:34;7.97;;;3.63;;
18316;SDS011;9284;52.298;21.164;2023-05-10T04:29:05;10.43;;;3.88;;
18316;SDS011;9284;52.298;21.164;2023-05-10T04:31:34;5.80;;;3.42;;
18316;SDS011;9284;52.298;21.164;2023-05-10T04:34:06;6.95;;;3.60;;
18316;SDS011;9284;52.298;21.164;2023-05-10T04:36:34;4.88;;;3.33;;
18316;SDS011;9284;52.298;21.164;2023-05-10T04:39:04;8.80;;;3.47;;
18316;SDS011;9284;52.298;21.164;2023-05-10T04:41:39;7.35;;;3.58;;
18316;SDS011;9284;52.298;21.164;2023-05-10T04:44:16;5.53;;;3.30;;
18316;SDS011;9284;52.298;21.164;2023-05-10T04:46:47;7.88;;;3.60;;
18316;SDS011;9284;52.298;21.164;2023-05-10T04:49:22;7.97;;;3.70;;
18316;SDS011;9284;52.298;21.164;2023-05-10T04:52:03;8.18;;;4.07;;
18316;SDS011;9284;52.298;21.164;2023-05-10T04:54:35;5.68;;;3.25;;
18316;SDS011;9284;52.298;21.164;2023-05-10T04:57:05;7.47;;;3.47;;
18316;SDS011;9284;52.298;21.164;2023-05-10T04:59:39;5.30;;;3.17;;
18316;SDS011;9284;52.298;21.164;2023-05-10T05:02:12;8.73;;;3.35;;
18316;SDS011;9284;52.298;21.164;2023-05-10T05:04:40;9.30;;;3.42;;
18316;SDS011;9284;52.298;21.164;2023-05-10T05:07:16;7.45;;;3.00;;
18316;SDS011;9284;52.298;21.164;2023-05-10T05:09:46;8.05;;;3.50;;
18316;SDS011;9284;52.298;21.164;2023-05-10T05:12:26;7.60;;;3.53;;
18316;SDS011;9284;52.298;21.164;2023-05-10T05:14:57;6.20;;;3.33;;
18316;SDS011;9284;52.298;21.164;2023-05-10T05:17:27;6.72;;;3.28;;
18316;SDS011;9284;52.298;21.164;2023-05-10T05:20:02;7.13;;;3.08;;
18316;SDS011;9284;52.298;21.164;2023-05-10T05:22:44;8.48;;;3.50;;
18316;SDS011;9284;52.298;21.164;2023-05-10T05:25:15;6.03;;;3.03;;
18316;SDS011;9284;52.298;21.164;2023-05-10T05:27:45;4.80;;;3.00;;
18316;SDS011;9284;52.298;21.164;2023-05-10T05:30:15;7.88;;;3.30;;
18316;SDS011;9284;52.298;21.164;2023-05-10T05:32:45;8.80;;;2.88;;
18316;SDS011;9284;52.298;21.164;2023-05-10T05:35:17;8.88;;;2.95;;
18316;SDS011;9284;52.298;21.164;2023-05-10T05:37:56;6.15;;;2.85;;
18316;SDS011;9284;52.298;21.164;2023-05-10T05:40:26;9.27;;;2.80;;
18316;SDS011;9284;52.298;21.164;2023-05-10T05:42:55;5.97;;;3.05;;
18316;SDS011;9284;52.298;21.164;2023-05-10T05:45:27;4.05;;;2.42;;
18316;SDS011;9284;52.298;21.164;2023-05-10T05:47:57;10.15;;;3.20;;
18316;SDS011;9284;52.298;21.164;2023-05-10T05:50:34;8.40;;;2.95;;
18316;SDS011;9284;52.298;21.164;2023-05-10T05:53:04;6.68;;;2.72;;
18316;SDS011;9284;52.298;21.164;2023-05-10T05:55:36;5.80;;;2.78;;
18316;SDS011;9284;52.298;21.164;2023-05-10T05:58:10;5.13;;;2.42;;
18316;SDS011;9284;52.298;21.164;2023-05-10T06:00:46;6.70;;;2.90;;
18316;SDS011;9284;52.298;21.164;2023-05-10T06:03:17;8.30;;;3.83;;
18316;SDS011;9284;52.298;21.164;2023-05-10T06:05:58;8.40;;;2.63;;
18316;SDS011;9284;52.298;21.164;2023-05-10T06:08:26;8.18;;;2.67;;
18316;SDS011;9284;52.298;21.164;2023-05-10T06:11:03;13.50;;;3.33;;
18316;SDS011;9284;52.298;21.164;2023-05-10T06:13:35;8.90;;;2.95;;
18316;SDS011;9284;52.298;21.164;2023-05-10T06:16:04;4.50;;;2.50;;
18316;SDS011;9284;52.298;21.164;2023-05-10T06:18:41;5.75;;;2.90;;
18316;SDS011;9284;52.298;21.164;2023-05-10T06:21:16;7.50;;;2.85;;
18316;SDS011;9284;52.298;21.164;2023-05-10T06:23:48;4.82;;;2.10;;
18316;SDS011;9284;52.298;21.164;2023-05-10T06:26:18;7.22;;;2.65;;
18316;SDS011;9284;52.298;21.164;2023-05-10T06:28:49;3.88;;;2.05;;
18316;SDS011;9284;52.298;21.164;2023-05-10T06:31:17;3.88;;;2.17;;
18316;SDS011;9284;52.298;21.164;2023-05-10T06:33:48;9.18;;;2.50;;
18316;SDS011;9284;52.298;21.164;2023-05-10T06:36:22;5.53;;;2.30;;
18316;SDS011;9284;52.298;21.164;2023-05-10T06:38:51;6.55;;;2.55;;
18316;SDS011;9284;52.298;21.164;2023-05-10T06:41:26;5.22;;;2.13;;
18316;SDS011;9284;52.298;21.164;2023-05-10T06:43:57;6.30;;;2.50;;
18316;SDS011;9284;52.298;21.164;2023-05-10T06:46:29;6.75;;;2.17;;
18316;SDS011;9284;52.298;21.164;2023-05-10T06:48:59;7.20;;;2.40;;
18316;SDS011;9284;52.298;21.164;2023-05-10T06:51:30;6.68;;;2.40;;
18316;SDS011;9284;52.298;21.164;2023-05-10T06:54:01;5.65;;;2.22;;
18316;SDS011;9284;52.298;21.164;2023-05-10T06:56:33;3.67;;;2.22;;
18316;SDS011;9284;52.298;21.164;2023-05-10T06:59:03;4.65;;;2.72;;
18316;SDS011;9284;52.298;21.164;2023-05-10T07:01:32;3.88;;;2.28;;
18316;SDS011;9284;52.298;21.164;2023-05-10T07:04:05;5.03;;;2.53;;
18316;SDS011;9284;52.298;21.164;2023-05-10T07:06:44;4.70;;;2.45;;
18316;SDS011;9284;52.298;21.164;2023-05-10T07:09:21;6.13;;;2.10;;
18316;SDS011;9284;52.298;21.164;2023-05-10T07:11:59;4.25;;;2.40;;
18316;SDS011;9284;52.298;21.164;2023-05-10T07:14:29;3.90;;;1.98;;
18316;SDS011;9284;52.298;21.164;2023-05-10T07:16:59;3.15;;;2.22;;
18316;SDS011;9284;52.298;21.164;2023-05-10T07:19:28;8.20;;;2.28;;
18316;SDS011;9284;52.298;21.164;2023-05-10T07:21:59;7.35;;;1.85;;
18316;SDS011;9284;52.298;21.164;2023-05-10T07:24:37;6.78;;;2.35;;
18316;SDS011;9284;52.298;21.164;2023-05-10T07:27:13;5.78;;;2.13;;
18316;SDS011;9284;52.298;21.164;2023-05-10T07:29:47;6.63;;;2.30;;
18316;SDS011;9284;52.298;21.164;2023-05-10T07:32:30;3.90;;;2.17;;
18316;SDS011;9284;52.298;21.164;2023-05-10T07:35:04;5.38;;;2.10;;
18316;SDS011;9284;52.298;21.164;2023-05-10T07:37:34;3.67;;;2.10;;
18316;SDS011;9284;52.298;21.164;2023-05-10T07:40:05;3.67;;;1.77;;
18316;SDS011;9284;52.298;21.164;2023-05-10T07:42:38;3.47;;;2.05;;
18316;SDS011;9284;52.298;21.164;2023-05-10T07:45:07;4.75;;;1.80;;
18316;SDS011;9284;52.298;21.164;2023-05-10T07:47:39;5.80;;;1.92;;
18316;SDS011;9284;52.298;21.164;2023-05-10T07:50:10;2.63;;;1.92;;
18316;SDS011;9284;52.298;21.164;2023-05-10T07:52:42;4.55;;;2.30;;
18316;SDS011;9284;52.298;21.164;2023-05-10T07:55:10;5.88;;;2.20;;
18316;SDS011;9284;52.298;21.164;2023-05-10T07:57:43;5.78;;;2.10;;
18316;SDS011;9284;52.298;21.164;2023-05-10T08:00:12;3.72;;;1.77;;
18316;SDS011;9284;52.298;21.164;2023-05-10T08:02:50;2.78;;;2.28;;
18316;SDS011;9284;52.298;21.164;2023-05-10T08:05:21;2.78;;;2.00;;
18316;SDS011;9284;52.298;21.164;2023-05-10T08:07:50;5.85;;;2.05;;
18316;SDS011;9284;52.298;21.164;2023-05-10T08:10:18;5.25;;;1.88;;
18316;SDS011;9284;52.298;21.164;2023-05-10T08:12:48;4.40;;;2.20;;
18316;SDS011;9284;52.298;21.164;2023-05-10T08:15:18;6.60;;;2.20;;
18316;SDS011;9284;52.298;21.164;2023-05-10T08:17:47;2.55;;;2.05;;
18316;SDS011;9284;52.298;21.164;2023-05-10T08:20:17;2.92;;;1.73;;
18316;SDS011;9284;52.298;21.164;2023-05-10T08:22:47;4.95;;;2.40;;
18316;SDS011;9284;52.298;21.164;2023-05-10T08:25:17;2.28;;;2.08;;
18316;SDS011;9284;52.298;21.164;2023-05-10T08:27:50;5.07;;;1.90;;
18316;SDS011;9284;52.298;21.164;2023-05-10T08:30:20;2.95;;;1.90;;
18316;SDS011;9284;52.298;21.164;2023-05-10T08:32:49;2.83;;;1.90;;
18316;SDS011;9284;52.298;21.164;2023-05-10T08:35:24;6.45;;;2.10;;
18316;SDS011;9284;52.298;21.164;2023-05-10T08:37:55;5.55;;;2.03;;
18316;SDS011;9284;52.298;21.164;2023-05-10T08:40:24;4.22;;;1.60;;
18316;SDS011;9284;52.298;21.164;2023-05-10T08:43:02;3.95;;;2.10;;
18316;SDS011;9284;52.298;21.164;2023-05-10T08:45:36;7.05;;;2.10;;
18316;SDS011;9284;52.298;21.164;2023-05-10T08:48:07;5.30;;;2.35;;
18316;SDS011;9284;52.298;21.164;2023-05-10T08:50:39;4.00;;;2.08;;
18316;SDS011;9284;52.298;21.164;2023-05-10T08:53:10;2.80;;;2.00;;
18316;SDS011;9284;52.298;21.164;2023-05-10T08:55:42;3.28;;;1.88;;
18316;SDS011;9284;52.298;21.164;2023-05-10T08:58:12;4.47;;;1.60;;
18316;SDS011;9284;52.298;21.164;2023-05-10T09:00:43;4.88;;;1.70;;
18316;SDS011;9284;52.298;21.164;2023-05-10T09:03:17;6.05;;;2.00;;
18316;SDS011;9284;52.298;21.164;2023-05-10T09:05:49;3.05;;;1.88;;
18316;SDS011;9284;52.298;21.164;2023-05-10T09:08:26;3.63;;;1.83;;
18316;SDS011;9284;52.298;21.164;2023-05-10T09:10:58;4.65;;;1.90;;
18316;SDS011;9284;52.298;21.164;2023-05-10T09:13:33;4.70;;;1.90;;
18316;SDS011;9284;52.298;21.164;2023-05-10T09:18:47;7.32;;;2.10;;
18316;SDS011;9284;52.298;21.164;2023-05-10T09:21:20;6.93;;;1.90;;
18316;SDS011;9284;52.298;21.164;2023-05-10T09:23:50;10.60;;;2.28;;
18316;SDS011;9284;52.298;21.164;2023-05-10T09:26:23;6.47;;;2.10;;
18316;SDS011;9284;52.298;21.164;2023-05-10T09:28:54;3.63;;;1.70;;
18316;SDS011;9284;52.298;21.164;2023-05-10T09:31:26;3.72;;;1.58;;
18316;SDS011;9284;52.298;21.164;2023-05-10T09:34:18;4.05;;;1.70;;
18316;SDS011;9284;52.298;21.164;2023-05-10T09:36:56;6.13;;;1.75;;
18316;SDS011;9284;52.298;21.164;2023-05-10T09:39:31;4.38;;;1.80;;
18316;SDS011;9284;52.298;21.164;2023-05-10T09:42:04;7.32;;;1.75;;
18316;SDS011;9284;52.298;21.164;2023-05-10T09:44:37;3.40;;;2.10;;
18316;SDS011;9284;52.298;21.164;2023-05-10T09:47:10;4.10;;;1.50;;
18316;SDS011;9284;52.298;21.164;2023-05-10T09:49:44;7.47;;;1.73;;
18316;SDS011;9284;52.298;21.164;2023-05-10T09:52:25;3.15;;;1.75;;
18316;SDS011;9284;52.298;21.164;2023-05-10T09:54:53;6.82;;;2.13;;
18316;SDS011;9284;52.298;21.164;2023-05-10T09:57:23;4.40;;;1.63;;
18316;SDS011;9284;52.298;21.164;2023-05-10T09:59:56;3.33;;;1.70;;
18316;SDS011;9284;52.298;21.164;2023-05-10T10:02:38;5.35;;;1.90;;
18316;SDS011;9284;52.298;21.164;2023-05-10T10:05:11;3.70;;;1.80;;
18316;SDS011;9284;52.298;21.164;2023-05-10T10:07:40;3.03;;;1.70;;
18316;SDS011;9284;52.298;21.164;2023-05-10T10:10:09;4.38;;;1.80;;
18316;SDS011;9284;52.298;21.164;2023-05-10T10:12:39;4.63;;;2.10;;
18316;SDS011;9284;52.298;21.164;2023-05-10T10:15:13;2.65;;;1.92;;
18316;SDS011;9284;52.298;21.164;2023-05-10T10:17:42;10.02;;;2.10;;
18316;SDS011;9284;52.298;21.164;2023-05-10T10:20:12;6.32;;;1.92;;
18316;SDS011;9284;52.298;21.164;2023-05-10T10:22:44;11.18;;;2.40;;
18316;SDS011;9284;52.298;21.164;2023-05-10T10:25:16;10.25;;;2.10;;
18316;SDS011;9284;52.298;21.164;2023-05-10T10:27:52;4.45;;;1.90;;
18316;SDS011;9284;52.298;21.164;2023-05-10T10:30:39;4.68;;;1.80;;
18316;SDS011;9284;52.298;21.164;2023-05-10T10:33:33;2.97;;;1.55;;
18316;SDS011;9284;52.298;21.164;2023-05-10T10:36:15;5.20;;;2.03;;
18316;SDS011;9284;52.298;21.164;2023-05-10T10:38:56;6.80;;;1.98;;
18316;SDS011;9284;52.298;21.164;2023-05-10T10:41:28;7.45;;;2.10;;
18316;SDS011;9284;52.298;21.164;2023-05-10T10:47:00;5.15;;;1.83;;
18316;SDS011;9284;52.298;21.164;2023-05-10T10:49:37;9.23;;;2.30;;
18316;SDS011;9284;52.298;21.164;2023-05-10T10:52:23;8.07;;;2.08;;
18316;SDS011;9284;52.298;21.164;2023-05-10T10:55:03;4.85;;;1.88;;
18316;SDS011;9284;52.298;21.164;2023-05-10T10:57:48;5.57;;;1.90;;
18316;SDS011;9284;52.298;21.164;2023-05-10T11:00:26;6.03;;;2.35;;
18316;SDS011;9284;52.298;21.164;2023-05-10T11:03:04;7.25;;;2.10;;
18316;SDS011;9284;52.298;21.164;2023-05-10T11:05:36;10.50;;;2.20;;
18316;SDS011;9284;52.298;21.164;2023-05-10T11:08:07;3.25;;;1.83;;
18316;SDS011;9284;52.298;21.164;2023-05-10T11:10:49;5.60;;;1.77;;
18316;SDS011;9284;52.298;21.164;2023-05-10T11:13:41;4.22;;;2.03;;
18316;SDS011;9284;52.298;21.164;2023-05-10T11:16:40;6.30;;;2.30;;
18316;SDS011;9284;52.298;21.164;2023-05-10T11:19:13;6.28;;;2.22;;
18316;SDS011;9284;52.298;21.164;2023-05-10T11:21:46;5.82;;;1.90;;
18316;SDS011;9284;52.298;21.164;2023-05-10T11:24:36;3.30;;;1.80;;
18316;SDS011;9284;52.298;21.164;2023-05-10T11:27:11;8.43;;;2.92;;
18316;SDS011;9284;52.298;21.164;2023-05-10T11:29:47;5.40;;;1.83;;
18316;SDS011;9284;52.298;21.164;2023-05-10T11:32:36;5.43;;;1.90;;
18316;SDS011;9284;52.298;21.164;2023-05-10T11:35:17;4.35;;;2.10;;
18316;SDS011;9284;52.298;21.164;2023-05-10T11:37:47;6.05;;;1.92;;
18316;SDS011;9284;52.298;21.164;2023-05-10T11:40:16;4.80;;;1.77;;
18316;SDS011;9284;52.298;21.164;2023-05-10T11:42:46;5.22;;;1.95;;
18316;SDS011;9284;52.298;21.164;2023-05-10T11:45:17;5.00;;;1.80;;
18316;SDS011;9284;52.298;21.164;2023-05-10T11:47:48;9.77;;;2.00;;
18316;SDS011;9284;52.298;21.164;2023-05-10T11:50:26;3.95;;;2.00;;
18316;SDS011;9284;52.298;21.164;2023-05-10T11:52:57;7.40;;;1.85;;
18316;SDS011;9284;52.298;21.164;2023-05-10T11:55:29;5.28;;;2.03;;
18316;SDS011;9284;52.298;21.164;2023-05-10T11:58:05;7.28;;;2.00;;
18316;SDS011;9284;52.298;21.164;2023-05-10T12:00:37;6.47;;;2.10;;
18316;SDS011;9284;52.298;21.164;2023-05-10T12:03:16;11.45;;;2.38;;
18316;SDS011;9284;52.298;21.164;2023-05-10T12:05:56;2.95;;;1.98;;
18316;SDS011;9284;52.298;21.164;2023-05-10T12:08:43;4.25;;;2.00;;
18316;SDS011;9284;52.298;21.164;2023-05-10T12:11:14;5.05;;;1.90;;
18316;SDS011;9284;52.298;21.164;2023-05-10T12:13:45;6.40;;;1.80;;
18316;SDS011;9284;52.298;21.164;2023-05-10T12:16:17;3.60;;;1.50;;
18316;SDS011;9284;52.298;21.164;2023-05-10T12:18:50;4.15;;;1.80;;
18316;SDS011;9284;52.298;21.164;2023-05-10T12:21:25;3.30;;;1.70;;
18316;SDS011;9284;52.298;21.164;2023-05-10T12:24:06;5.90;;;2.08;;
18316;SDS011;9284;52.298;21.164;2023-05-10T12:26:39;5.05;;;1.75;;
18316;SDS011;9284;52.298;21.164;2023-05-10T12:29:26;3.15;;;2.03;;
18316;SDS011;9284;52.298;21.164;2023-05-10T12:31:59;5.07;;;1.97;;
18316;SDS011;9284;52.298;21.164;2023-05-10T12:34:32;3.60;;;2.05;;
18316;SDS011;9284;52.298;21.164;2023-05-10T12:37:06;3.92;;;1.88;;
18316;SDS011;9284;52.298;21.164;2023-05-10T12:39:39;6.00;;;1.98;;
18316;SDS011;9284;52.298;21.164;2023-05-10T12:42:11;5.10;;;1.90;;
18316;SDS011;9284;52.298;21.164;2023-05-10T12:44:41;2.67;;;1.90;;
18316;SDS011;9284;52.298;21.164;2023-05-10T12:47:11;5.90;;;1.98;;
18316;SDS011;9284;52.298;21.164;2023-05-10T12:49:50;4.50;;;1.95;;
18316;SDS011;9284;52.298;21.164;2023-05-10T12:52:22;4.00;;;1.88;;
18316;SDS011;9284;52.298;21.164;2023-05-10T12:55:02;5.20;;;2.00;;
18316;SDS011;9284;52.298;21.164;2023-05-10T12:57:45;6.03;;;2.50;;
18316;SDS011;9284;52.298;21.164;2023-05-10T13:00:24;6.70;;;2.10;;
18316;SDS011;9284;52.298;21.164;2023-05-10T13:02:55;4.45;;;1.70;;
18316;SDS011;9284;52.298;21.164;2023-05-10T13:05:30;2.70;;;1.90;;
18316;SDS011;9284;52.298;21.164;2023-05-10T13:08:12;4.70;;;1.90;;
18316;SDS011;9284;52.298;21.164;2023-05-10T13:10:45;3.92;;;2.00;;
18316;SDS011;9284;52.298;21.164;2023-05-10T13:13:24;4.93;;;2.08;;
18316;SDS011;9284;52.298;21.164;2023-05-10T13:16:07;10.18;;;3.40;;
18316;SDS011;9284;52.298;21.164;2023-05-10T13:18:38;5.68;;;2.08;;
18316;SDS011;9284;52.298;21.164;2023-05-10T13:21:08;2.70;;;2.10;;
18316;SDS011;9284;52.298;21.164;2023-05-10T13:23:39;4.85;;;1.90;;
18316;SDS011;9284;52.298;21.164;2023-05-10T13:26:10;2.72;;;2.00;;
18316;SDS011;9284;52.298;21.164;2023-05-10T13:28:45;3.92;;;2.30;;
18316;SDS011;9284;52.298;21.164;2023-05-10T13:31:16;5.50;;;1.90;;
18316;SDS011;9284;52.298;21.164;2023-05-10T13:33:48;8.10;;;2.10;;
18316;SDS011;9284;52.298;21.164;2023-05-10T13:36:22;4.43;;;1.73;;
18316;SDS011;9284;52.298;21.164;2023-05-10T13:38:56;2.10;;;1.80;;
18316;SDS011;9284;52.298;21.164;2023-05-10T13:41:28;4.28;;;2.28;;
18316;SDS011;9284;52.298;21.164;2023-05-10T13:44:12;4.68;;;1.70;;
18316;SDS011;9284;52.298;21.164;2023-05-10T13:46:51;3.28;;;1.80;;
18316;SDS011;9284;52.298;21.164;2023-05-10T13:49:20;3.92;;;1.65;;
18316;SDS011;9284;52.298;21.164;2023-05-10T13:51:54;6.03;;;1.95;;
18316;SDS011;9284;52.298;21.164;2023-05-10T13:54:28;6.05;;;1.88;;
18316;SDS011;9284;52.298;21.164;2023-05-10T13:57:01;7.70;;;2.08;;
18316;SDS011;9284;52.298;21.164;2023-05-10T13:59:40;4.75;;;2.03;;
18316;SDS011;9284;52.298;21.164;2023-05-10T14:02:08;4.55;;;1.77;;
18316;SDS011;9284;52.298;21.164;2023-05-10T14:04:39;3.25;;;1.58;;
18316;SDS011;9284;52.298;21.164;2023-05-10T14:07:11;6.43;;;1.85;;
18316;SDS011;9284;52.298;21.164;2023-05-10T14:09:44;4.85;;;1.83;;
18316;SDS011;9284;52.298;21.164;2023-05-10T14:12:14;2.83;;;1.80;;
18316;SDS011;9284;52.298;21.164;2023-05-10T14:14:45;7.18;;;1.90;;
18316;SDS011;9284;52.298;21.164;2023-05-10T14:17:25;3.67;;;1.88;;
18316;SDS011;9284;52.298;21.164;2023-05-10T14:20:20;5.00;;;1.77;;
18316;SDS011;9284;52.298;21.164;2023-05-10T14:22:51;3.42;;;2.08;;
18316;SDS011;9284;52.298;21.164;2023-05-10T14:25:26;3.72;;;1.92;;
18316;SDS011;9284;52.298;21.164;2023-05-10T14:28:10;5.03;;;1.90;;
18316;SDS011;9284;52.298;21.164;2023-05-10T14:30:58;2.50;;;1.80;;
18316;SDS011;9284;52.298;21.164;2023-05-10T14:33:31;5.85;;;2.00;;
18316;SDS011;9284;52.298;21.164;2023-05-10T14:36:02;5.53;;;2.63;;
18316;SDS011;9284;52.298;21.164;2023-05-10T14:38:31;3.15;;;1.73;;
18316;SDS011;9284;52.298;21.164;2023-05-10T14:41:04;4.03;;;1.80;;
18316;SDS011;9284;52.298;21.164;2023-05-10T14:43:44;4.43;;;1.90;;
18316;SDS011;9284;52.298;21.164;2023-05-10T14:46:18;6.18;;;1.88;;
18316;SDS011;9284;52.298;21.164;2023-05-10T14:48:49;4.45;;;2.15;;
18316;SDS011;9284;52.298;21.164;2023-05-10T14:51:26;2.97;;;1.90;;
18316;SDS011;9284;52.298;21.164;2023-05-10T14:53:56;6.38;;;2.05;;
18316;SDS011;9284;52.298;21.164;2023-05-10T14:56:28;3.15;;;1.80;;
18316;SDS011;9284;52.298;21.164;2023-05-10T14:59:02;3.05;;;1.75;;
18316;SDS011;9284;52.298;21.164;2023-05-10T15:01:38;2.13;;;1.80;;
18316;SDS011;9284;52.298;21.164;2023-05-10T15:04:17;2.58;;;1.65;;
18316;SDS011;9284;52.298;21.164;2023-05-10T15:06:46;5.72;;;1.83;;
18316;SDS011;9284;52.298;21.164;2023-05-10T15:09:14;8.45;;;2.00;;
18316;SDS011;9284;52.298;21.164;2023-05-10T15:11:48;2.83;;;1.90;;
18316;SDS011;9284;52.298;21.164;2023-05-10T15:14:18;3.20;;;1.63;;
18316;SDS011;9284;52.298;21.164;2023-05-10T15:16:50;2.35;;;2.03;;
18316;SDS011;9284;52.298;21.164;2023-05-10T15:19:21;6.25;;;2.20;;
18316;SDS011;9284;52.298;21.164;2023-05-10T15:21:52;5.57;;;1.77;;
18316;SDS011;9284;52.298;21.164;2023-05-10T15:24:28;4.55;;;1.95;;
18316;SDS011;9284;52.298;21.164;2023-05-10T15:26:58;7.97;;;2.13;;
18316;SDS011;9284;52.298;21.164;2023-05-10T15:29:31;1.67;;;1.58;;
18316;SDS011;9284;52.298;21.164;2023-05-10T15:32:01;3.85;;;1.70;;
18316;SDS011;9284;52.298;21.164;2023-05-10T15:34:30;1.63;;;1.48;;
18316;SDS011;9284;52.298;21.164;2023-05-10T15:37:07;4.20;;;1.95;;
18316;SDS011;9284;52.298;21.164;2023-05-10T15:39:39;2.70;;;1.60;;